Clarks Point, Alaska
Current Conditions -  °F | °C
As of 2:56 AM on Thursday 29 Jan 2015 (Local Time) from PFCL Reporting Station
Clear Clear  
Wind Chill: -8°   Ceiling: Unl
Heat Index:   Visibility: 10mi
Dew Point: -2°   Wind: 13mph
Humidity: 64%   Direction: 30°NNE
Pressure: 30.09"   Gusts: NA
Location:  58.84°N, 158.55°W
Report Text: PFCL 291156Z AUTO 03011KT 10SM CLR M13/M19 A3009 RMK AO2 SLP193 T11331189 11111 21133 51008 FZRANO
Loading
Personal Weather Stations






























Interactive Weather Map New forecast layout! Learn more

10-Day Weather Forecast

Advertisements
Track Severe Weather on mobile